.
WxDataArchive / Data Records for 2009-08-16
2009-08-15 August 2009 2009-08-17

Data Records for Sunday, 16 August 2009

Time	Temp	Chill	HIndex	Humid	Dewpt	 Wind 	HiWind	WindDir	Rain 	Barom 
-----	----	-----	------	-----	-----	------	------	-------	-----	----- 
00:00	73.0	73.0	73.0	75	64.6	0	0	---	0.00	30.092 
00:05	72.8	72.8	72.8	76	64.8	0	0	---	0.00	30.092 
00:10	72.7	72.7	72.7	77	65.1	0	0	---	0.00	30.092 
00:15	72.3	72.3	72.3	77	64.7	0	0	---	0.00	30.090 
00:20	72.1	72.1	72.1	78	64.8	0	0	---	0.00	30.090 
00:25	72.0	72.0	72.0	78	64.8	0	0	---	0.00	30.090 
00:30	71.8	71.8	71.8	79	64.9	0	0	---	0.00	30.089 
00:35	71.8	71.8	71.8	80	65.3	0	0	---	0.00	30.089 
00:40	71.6	71.6	71.6	81	65.4	0	0	---	0.00	30.089 
00:45	71.6	71.6	71.6	81	65.4	0	0	---	0.00	30.094 
00:50	71.5	71.5	71.5	81	65.4	0	0	---	0.00	30.094 
00:55	71.5	71.5	71.5	82	65.7	0	0	---	0.00	30.094 
01:00	71.5	71.5	71.5	83	66.1	0	0	---	0.00	30.091 
01:05	71.3	71.3	71.3	83	65.9	0	0	---	0.00	30.091 
01:10	71.3	71.3	71.3	84	66.2	0	0	---	0.00	30.091 
01:15	71.3	71.3	71.3	84	66.2	0	0	---	0.00	30.093 
01:20	71.3	71.3	71.3	84	66.2	0	0	---	0.00	30.093 
01:25	71.3	71.3	71.3	84	66.2	0	0	---	0.00	30.093 
01:30	71.3	71.3	71.3	85	66.5	0	0	---	0.00	30.090 
01:35	71.3	71.3	71.3	85	66.5	0	0	---	0.00	30.090 
01:40	71.3	71.3	71.3	85	66.5	0	0	---	0.00	30.090 
01:45	71.3	71.3	71.3	85	66.5	0	0	---	0.00	30.089 
01:50	71.3	71.3	71.3	85	66.5	0	0	---	0.00	30.089 
01:55	71.3	71.3	71.3	85	66.5	0	0	---	0.00	30.089 
02:00	71.5	71.5	71.5	85	66.7	0	0	---	0.00	30.083 
02:05	71.5	71.5	71.5	85	66.7	0	0	---	0.00	30.083 
02:10	71.6	71.6	71.6	86	67.2	0	2	90	0.00	30.083 
02:15	71.8	71.8	71.8	85	67.0	0	1	90	0.00	30.080 
02:20	72.0	72.0	72.0	85	67.2	0	1	90	0.00	30.080 
02:25	72.1	72.1	72.1	85	67.3	0	0	---	0.00	30.080 
02:30	72.1	72.1	72.1	85	67.3	0	0	---	0.00	30.080 
02:35	72.1	72.1	72.1	85	67.3	0	0	---	0.00	30.080 
02:40	72.1	72.1	72.1	85	67.3	0	0	---	0.00	30.080 
02:45	72.1	72.1	72.1	85	67.3	0	0	---	0.00	30.078 
02:50	72.1	72.1	72.1	85	67.3	0	0	---	0.00	30.078 
02:55	72.1	72.1	72.1	85	67.3	0	0	---	0.00	30.078 
03:00	72.0	72.0	72.0	85	67.2	0	0	---	0.00	30.072 
03:05	72.0	72.0	72.0	86	67.6	0	0	---	0.00	30.072 
03:10	71.8	71.8	71.8	86	67.4	0	0	---	0.00	30.072 
03:15	72.0	72.0	72.0	86	67.6	0	0	---	0.00	30.066 
03:20	72.0	72.0	72.0	86	67.6	0	1	90	0.00	30.066 
03:25	72.0	72.0	72.0	86	67.6	0	1	90	0.00	30.066 
03:30	72.0	72.0	72.0	86	67.6	0	0	---	0.00	30.064 
03:35	72.0	72.0	72.0	86	67.6	0	0	---	0.00	30.064 
03:40	71.8	71.8	71.8	86	67.4	0	0	---	0.00	30.064 
03:45	71.6	71.6	71.6	87	67.5	0	0	---	0.00	30.064 
03:50	71.5	71.5	71.5	87	67.4	0	0	---	0.00	30.064 
03:55	71.3	71.3	71.3	87	67.2	0	0	---	0.00	30.064 
04:00	71.1	71.1	71.1	88	67.4	0	0	---	0.00	30.065 
04:05	70.9	70.9	70.9	88	67.2	0	0	---	0.00	30.065 
04:10	70.8	70.8	70.8	88	67.1	0	0	---	0.00	30.065 
04:15	70.8	70.8	70.8	88	67.1	0	0	---	0.00	30.065 
04:20	70.6	70.6	70.6	88	66.9	0	0	---	0.00	30.065 
04:25	70.4	70.4	70.4	89	67.0	0	0	---	0.00	30.065 
04:30	70.3	70.3	70.3	89	66.9	0	0	---	0.00	30.066 
04:35	70.1	70.1	70.1	89	66.7	0	0	---	0.00	30.066 
04:40	69.9	69.9	69.9	89	66.5	0	0	---	0.00	30.066 
04:45	69.8	69.8	69.8	90	66.7	0	0	---	0.00	30.063 
04:50	69.6	69.6	69.6	90	66.5	0	0	---	0.00	30.063 
04:55	69.4	69.4	69.4	90	66.3	0	0	---	0.00	30.063 
05:00	69.3	69.3	69.3	90	66.2	0	0	---	0.00	30.066 
05:05	69.3	69.3	69.3	91	66.6	0	0	---	0.00	30.066 
05:10	69.3	69.3	69.3	91	66.6	0	0	---	0.00	30.066 
05:15	69.1	69.1	69.1	92	66.7	0	0	---	0.00	30.067 
05:20	69.1	69.1	69.1	92	66.7	0	0	---	0.00	30.067 
05:25	68.9	68.9	68.9	92	66.5	0	0	---	0.00	30.067 
05:30	68.8	68.8	68.8	92	66.4	0	0	---	0.00	30.067 
05:35	68.6	68.6	68.6	92	66.2	0	0	---	0.00	30.067 
05:40	68.4	68.4	68.4	92	66.0	0	0	---	0.00	30.067 
05:45	68.4	68.4	68.4	92	66.0	0	0	---	0.00	30.069 
05:50	68.3	68.3	68.3	92	65.9	0	0	---	0.00	30.069 
05:55	68.1	68.1	68.1	92	65.7	0	0	---	0.00	30.069 
06:00	67.9	67.9	67.9	92	65.5	0	0	---	0.00	30.071 
06:05	67.9	67.9	67.9	93	65.8	0	0	---	0.00	30.071 
06:10	67.8	67.8	67.8	93	65.7	0	0	---	0.00	30.071 
06:15	67.8	67.8	67.8	93	65.7	0	0	---	0.00	30.074 
06:20	67.6	67.6	67.6	93	65.5	0	0	---	0.00	30.074 
06:25	67.4	67.4	67.4	93	65.3	0	0	---	0.00	30.074 
06:30	67.4	67.4	67.4	93	65.3	0	0	---	0.00	30.079 
06:35	67.3	67.3	67.3	93	65.2	0	0	---	0.00	30.079 
06:40	67.3	67.3	67.3	93	65.2	0	0	---	0.00	30.079 
06:45	67.3	67.3	67.3	93	65.2	0	0	---	0.00	30.075 
06:50	67.1	67.1	67.1	94	65.3	0	0	---	0.00	30.075 
06:55	67.1	67.1	67.1	94	65.3	0	0	---	0.00	30.075 
07:00	67.1	67.1	67.1	94	65.3	0	0	---	0.00	30.080 
07:05	67.1	67.1	67.1	94	65.3	0	0	---	0.00	30.080 
07:10	67.1	67.1	67.1	94	65.3	0	0	---	0.00	30.080 
07:15	67.1	67.1	67.1	94	65.3	0	0	---	0.00	30.088 
07:20	67.1	67.1	67.1	94	65.3	0	0	---	0.00	30.088 
07:25	67.3	67.3	67.3	94	65.5	0	0	---	0.00	30.088 
07:30	67.4	67.4	67.4	95	65.9	0	0	---	0.00	30.092 
07:35	67.4	67.4	67.4	95	65.9	0	0	---	0.00	30.092 
07:40	67.8	67.8	67.8	95	66.3	0	0	---	0.00	30.092 
07:45	67.9	67.9	67.9	95	66.4	0	0	---	0.00	30.101 
07:50	68.3	68.3	68.3	95	66.8	0	0	---	0.00	30.101 
07:55	68.4	68.4	68.4	94	66.6	0	1	90	0.00	30.101 
08:00	68.8	68.8	68.8	94	67.0	0	0	---	0.00	30.101 
08:05	69.3	69.3	69.3	94	67.5	0	0	---	0.00	30.101 
08:10	69.9	69.9	69.9	94	68.1	0	1	90	0.00	30.101 
08:15	70.6	70.6	70.6	93	68.5	0	0	---	0.00	30.107 
08:20	71.3	71.3	71.3	92	68.8	0	1	68	0.00	30.107 
08:25	72.1	72.1	72.1	90	69.0	0	0	---	0.00	30.107 
08:30	73.0	73.0	73.0	89	69.6	0	0	---	0.00	30.104 
08:35	73.5	73.5	73.5	87	69.4	0	1	68	0.00	30.104 
08:40	74.2	74.2	74.2	85	69.4	0	2	68	0.00	30.104 
08:45	74.9	74.9	74.9	83	69.4	0	1	90	0.00	30.101 
08:50	75.4	75.4	75.9	82	69.5	1	3	45	0.00	30.101 
08:55	76.1	76.1	77.1	80	69.5	1	3	68	0.00	30.101 
09:00	76.5	76.5	77.8	79	69.5	0	1	68	0.00	30.102 
09:05	76.5	76.5	77.9	78	69.1	0	2	22	0.00	30.102 
09:10	76.7	76.7	78.1	79	69.7	0	1	22	0.00	30.102 
09:15	77.0	77.0	78.6	78	69.6	0	2	225	0.00	30.104 
09:20	77.4	77.4	79.3	77	69.6	0	2	225	0.00	30.104 
09:25	77.7	77.7	79.7	77	69.9	0	3	225	0.00	30.104 
09:30	77.9	77.9	80.0	75	69.3	1	4	292	0.00	30.104 
09:35	77.9	77.9	80.0	75	69.3	0	2	270	0.00	30.104 
09:40	78.1	78.1	80.4	76	69.9	0	2	270	0.00	30.104 
09:45	78.8	78.8	81.5	75	70.2	0	2	270	0.00	30.102 
09:50	79.6	79.6	82.6	73	70.2	1	3	270	0.00	30.102 
09:55	79.9	79.9	83.0	72	70.0	1	3	270	0.00	30.102 
10:00	80.5	80.5	84.1	72	70.6	1	3	270	0.00	30.099 
10:05	81.1	81.1	85.0	71	70.8	0	2	270	0.00	30.099 
10:10	81.6	81.6	85.5	69	70.4	0	3	270	0.00	30.099 
10:15	82.4	82.4	86.7	68	70.8	1	2	270	0.00	30.098 
10:20	82.6	82.6	86.6	66	70.1	1	7	292	0.00	30.098 
10:25	82.8	82.8	87.0	66	70.3	1	2	248	0.00	30.098 
10:30	83.2	83.2	87.5	65	70.2	1	4	270	0.00	30.098 
10:35	83.2	83.2	87.7	66	70.6	1	3	270	0.00	30.098 
10:40	83.4	83.4	88.1	66	70.8	0	2	270	0.00	30.098 
10:45	84.0	84.0	88.4	63	70.0	2	5	248	0.00	30.095 
10:50	84.5	84.5	89.0	62	70.0	1	3	248	0.00	30.095 
10:55	85.1	85.1	90.1	62	70.6	2	4	90	0.00	30.095 
11:00	85.5	85.5	90.5	61	70.5	1	3	68	0.00	30.092 
11:05	85.9	85.9	90.9	60	70.4	1	4	270	0.00	30.092 
11:10	86.5	86.5	91.3	58	69.9	1	4	90	0.00	30.092 
11:15	87.0	87.0	92.3	58	70.4	2	5	68	0.00	30.090 
11:20	86.7	86.7	91.7	58	70.1	2	5	270	0.00	30.090 
11:25	87.0	87.0	92.3	58	70.4	1	5	248	0.00	30.090 
11:30	87.2	87.2	91.9	56	69.6	2	5	270	0.00	30.090 
11:35	87.4	87.4	92.2	56	69.7	1	3	112	0.00	30.090 
11:40	88.0	88.0	92.2	53	68.7	2	6	22	0.00	30.090 
11:45	88.2	88.2	92.5	53	68.9	1	4	292	0.00	30.090 
11:50	88.2	88.2	92.5	53	68.9	2	4	315	0.00	30.090 
11:55	88.4	88.4	92.5	52	68.5	2	4	45	0.00	30.090 
12:00	88.8	88.8	93.7	53	69.4	1	3	0	0.00	30.089 
12:05	89.3	89.3	93.7	51	68.8	1	4	270	0.00	30.089 
12:10	89.5	89.5	93.7	50	68.4	2	5	292	0.00	30.089 
12:15	89.3	89.3	94.2	52	69.3	1	4	292	0.00	30.087 
12:20	89.7	89.7	94.0	50	68.5	1	4	338	0.00	30.087 
12:25	89.5	89.5	93.7	50	68.4	2	5	292	0.00	30.087 
12:30	89.3	89.3	93.3	50	68.2	2	5	292	0.00	30.083 
12:35	89.7	89.7	94.5	51	69.1	1	4	68	0.00	30.083 
12:40	90.1	90.1	94.8	50	68.9	2	6	45	0.00	30.083 
12:45	90.5	90.5	95.1	49	68.7	2	7	270	0.00	30.077 
12:50	90.3	90.3	95.2	50	69.1	2	7	292	0.00	30.077 
12:55	90.3	90.3	94.3	48	67.9	2	5	315	0.00	30.077 
13:00	89.9	89.9	93.5	48	67.5	2	6	248	0.00	30.078 
13:05	89.7	89.7	94.0	50	68.5	1	4	270	0.00	30.078 
13:10	89.0	89.0	92.4	49	67.3	2	5	270	0.00	30.078 
13:15	88.6	88.6	91.7	49	67.0	2	6	202	0.00	30.079 
13:20	89.0	89.0	92.4	49	67.3	1	5	270	0.00	30.079 
13:25	89.7	89.7	92.8	47	66.7	2	6	270	0.00	30.079 
13:30	90.3	90.3	92.6	44	65.4	3	9	270	0.00	30.075 
13:35	90.5	90.5	92.9	44	65.6	3	8	270	0.00	30.075 
13:40	91.0	91.0	94.6	46	67.3	2	5	270	0.00	30.075 
13:45	91.4	91.4	94.9	45	67.0	1	6	68	0.00	30.067 
13:50	91.4	91.4	94.9	45	67.0	2	6	90	0.00	30.067 
13:55	91.2	91.2	94.1	44	66.2	2	9	225	0.00	30.067 
14:00	91.4	91.4	94.5	44	66.4	2	6	270	0.00	30.065 
14:05	92.1	92.1	95.7	44	67.0	1	5	292	0.00	30.065 
14:10	91.4	91.4	94.5	44	66.4	2	5	292	0.00	30.065 
14:15	91.2	91.2	93.7	43	65.5	2	6	270	0.00	30.065 
14:20	91.4	91.4	94.5	44	66.4	2	5	270	0.00	30.065 
14:25	91.6	91.6	94.8	44	66.6	2	6	270	0.00	30.065 
14:30	91.4	91.4	94.0	43	65.7	2	5	270	0.00	30.061 
14:35	91.2	91.2	94.5	45	66.8	2	6	270	0.00	30.061 
14:40	91.6	91.6	94.8	44	66.6	2	10	68	0.00	30.061 
14:45	91.8	91.8	94.3	42	65.4	2	5	270	0.00	30.052 
14:50	92.1	92.1	95.2	43	66.3	2	4	270	0.00	30.052 
14:55	92.1	92.1	94.4	41	65.0	3	9	270	0.00	30.052 
15:00	91.4	91.4	94.0	43	65.7	2	7	292	0.00	30.044 
15:05	91.2	91.2	93.7	43	65.5	3	10	270	0.00	30.044 
15:10	91.6	91.6	93.1	40	63.8	2	6	90	0.00	30.044 
15:15	92.1	92.1	93.9	40	64.3	3	7	90	0.00	30.044 
15:20	91.8	91.8	93.1	39	63.3	3	9	270	0.00	30.044 
15:25	91.6	91.6	93.5	41	64.5	3	7	270	0.00	30.044 
15:30	91.4	91.4	94.0	43	65.7	1	3	270	0.00	30.036 
15:35	91.8	91.8	94.3	42	65.4	2	9	90	0.00	30.036 
15:40	91.6	91.6	94.4	43	65.9	3	10	292	0.00	30.036 
15:45	91.6	91.6	93.1	40	63.8	3	9	270	0.00	30.031 
15:50	91.4	91.4	93.2	41	64.3	4	13	248	0.00	30.031 
15:55	91.4	91.4	92.8	40	63.6	3	9	270	0.00	30.031 
16:00	91.6	91.6	93.5	41	64.5	3	9	270	0.00	30.026 
16:05	92.1	92.1	94.8	42	65.7	2	6	315	0.00	30.026 
16:10	92.1	92.1	93.9	40	64.3	2	5	315	0.00	30.026 
16:15	91.8	91.8	93.9	41	64.7	2	5	90	0.00	30.019 
16:20	91.4	91.4	92.4	39	62.9	3	7	68	0.00	30.019 
16:25	91.0	91.0	92.6	41	64.0	1	6	90	0.00	30.019 
16:30	91.0	91.0	93.0	42	64.7	2	9	248	0.00	30.017 
16:35	91.2	91.2	93.3	42	64.9	2	6	90	0.00	30.017 
16:40	91.4	91.4	92.8	40	63.6	2	9	270	0.00	30.017 
16:45	91.4	91.4	92.4	39	62.9	3	8	248	0.00	30.019 
16:50	91.4	91.4	92.4	39	62.9	2	5	270	0.00	30.019 
16:55	91.6	91.6	93.1	40	63.8	2	5	248	0.00	30.019 
17:00	91.8	91.8	92.7	38	62.5	3	12	248	0.00	30.014 
17:05	91.8	91.8	92.3	37	61.8	2	6	292	0.00	30.014 
17:10	91.6	91.6	92.4	38	62.3	3	6	270	0.00	30.014 
17:15	91.6	91.6	92.4	38	62.3	1	6	248	0.00	30.017 
17:20	91.6	91.6	92.7	39	63.1	2	9	248	0.00	30.017 
17:25	91.2	91.2	92.1	39	62.7	2	6	292	0.00	30.017 
17:30	91.0	91.0	92.6	41	64.0	2	5	338	0.00	30.018 
17:35	91.0	91.0	92.2	40	63.3	2	5	270	0.00	30.018 
17:40	91.0	91.0	92.2	40	63.3	1	4	270	0.00	30.018 
17:45	90.7	90.7	91.7	40	63.0	1	4	270	0.00	30.017 
17:50	90.1	90.1	91.9	43	64.5	1	5	270	0.00	30.017 
17:55	89.9	89.9	91.6	43	64.4	2	6	248	0.00	30.017 
18:00	89.7	89.7	91.3	43	64.2	2	5	270	0.00	30.015 
18:05	89.3	89.3	91.0	44	64.5	1	4	248	0.00	30.015 
18:10	89.3	89.3	91.0	44	64.5	2	9	90	0.00	30.015 
18:15	89.3	89.3	91.0	44	64.5	2	9	315	0.00	30.019 
18:20	89.5	89.5	91.7	45	65.3	0	4	292	0.00	30.019 
18:25	89.3	89.3	91.0	44	64.5	1	4	292	0.00	30.019 
18:30	89.0	89.0	90.9	45	64.9	1	3	338	0.00	30.017 
18:35	88.6	88.6	90.3	45	64.5	1	7	315	0.00	30.017 
18:40	88.4	88.4	90.0	45	64.3	1	9	68	0.00	30.017 
18:45	88.4	88.4	90.3	46	64.9	1	5	135	0.00	30.015 
18:50	88.2	88.2	90.0	46	64.8	1	5	135	0.00	30.015 
18:55	88.2	88.2	90.0	46	64.8	1	5	315	0.00	30.015 
19:00	88.0	88.0	90.0	47	65.2	1	6	292	0.00	30.017 
19:05	87.8	87.8	89.7	47	65.0	1	4	292	0.00	30.017 
19:10	87.6	87.6	89.4	47	64.8	2	5	248	0.00	30.017 
19:15	87.6	87.6	89.7	48	65.4	1	12	270	0.00	30.007 
19:20	87.6	87.6	90.0	49	66.0	1	4	315	0.00	30.007 
19:25	87.4	87.4	89.7	49	65.9	0	3	270	0.00	30.007 
19:30	87.2	87.2	89.7	50	66.3	1	4	270	0.00	30.006 
19:35	87.0	87.0	89.4	50	66.1	1	3	248	0.00	30.006 
19:40	86.7	86.7	88.9	50	65.8	1	3	0	0.00	30.006 
19:45	86.5	86.5	88.6	50	65.6	0	3	338	0.00	30.014 
19:50	86.1	86.1	88.3	51	65.8	1	4	270	0.00	30.014 
19:55	85.9	85.9	88.3	52	66.2	1	4	270	0.00	30.014 
20:00	85.7	85.7	88.0	52	66.0	1	3	202	0.00	30.019 
20:05	85.5	85.5	88.0	53	66.4	0	2	315	0.00	30.019 
20:10	85.3	85.3	87.7	53	66.2	0	3	248	0.00	30.019 
20:15	85.1	85.1	87.7	54	66.6	0	2	248	0.00	30.015 
20:20	84.9	84.9	87.3	54	66.4	1	3	248	0.00	30.015 
20:25	84.7	84.7	87.0	54	66.2	0	1	248	0.00	30.015 
20:30	84.5	84.5	87.0	55	66.5	0	3	225	0.00	30.016 
20:35	84.1	84.1	86.7	56	66.7	0	1	225	0.00	30.016 
20:40	83.8	83.8	86.4	57	66.9	0	2	225	0.00	30.016 
20:45	83.6	83.6	86.1	57	66.7	0	4	292	0.00	30.024 
20:50	83.4	83.4	86.1	58	67.0	0	1	292	0.00	30.024 
20:55	83.0	83.0	85.7	59	67.2	0	0	---	0.00	30.024 
21:00	82.6	82.6	85.1	59	66.8	0	1	292	0.00	30.031 
21:05	82.2	82.2	84.7	60	66.9	0	1	292	0.00	30.031 
21:10	82.0	82.0	84.6	61	67.2	0	1	292	0.00	30.031 
21:15	81.8	81.8	84.5	62	67.5	0	1	292	0.00	30.033 
21:20	81.4	81.4	83.9	62	67.1	0	1	292	0.00	30.033 
21:25	81.2	81.2	83.6	62	66.9	0	0	---	0.00	30.033 
21:30	81.1	81.1	83.6	63	67.3	0	3	292	0.00	30.038 
21:35	81.1	81.1	83.6	63	67.3	0	1	292	0.00	30.038 
21:40	80.9	80.9	83.4	63	67.1	0	1	292	0.00	30.038 
21:45	80.9	80.9	83.4	63	67.1	0	2	292	0.00	30.046 
21:50	80.9	80.9	83.4	63	67.1	0	2	292	0.00	30.046 
21:55	80.9	80.9	83.4	63	67.1	0	1	292	0.00	30.046 
22:00	80.7	80.7	83.2	64	67.4	0	2	270	0.00	30.048 
22:05	80.9	80.9	83.5	64	67.6	0	4	270	0.00	30.048 
22:10	80.9	80.9	83.4	63	67.1	0	3	270	0.00	30.048 
22:15	80.9	80.9	83.5	64	67.6	0	1	270	0.00	30.046 
22:20	80.9	80.9	83.5	64	67.6	0	1	270	0.00	30.046 
22:25	80.7	80.7	83.2	64	67.4	0	2	270	0.00	30.046 
22:30	80.7	80.7	83.2	64	67.4	0	4	270	0.00	30.047 
22:35	80.7	80.7	83.2	64	67.4	0	2	22	0.00	30.047 
22:40	80.7	80.7	83.2	64	67.4	0	1	22	0.00	30.047 
22:45	80.5	80.5	83.1	65	67.6	0	2	248	0.00	30.046 
22:50	80.5	80.5	83.1	65	67.6	0	2	248	0.00	30.046 
22:55	80.7	80.7	83.4	65	67.8	0	5	68	0.00	30.046 
23:00	80.7	80.7	83.4	65	67.8	0	2	68	0.00	30.047 
23:05	80.7	80.7	83.4	65	67.8	0	2	248	0.00	30.047 
23:10	80.5	80.5	83.1	65	67.6	0	3	270	0.00	30.047 
23:15	80.5	80.5	83.2	66	68.1	0	2	270	0.00	30.047 
23:20	80.5	80.5	83.2	66	68.1	1	3	225	0.00	30.047 
23:25	80.3	80.3	82.9	66	67.9	0	2	225	0.00	30.047 
23:30	80.1	80.1	82.7	67	68.1	0	2	225	0.00	30.052 
23:35	79.9	79.9	82.5	67	67.9	0	1	225	0.00	30.052 
23:40	79.8	79.8	82.4	68	68.3	0	2	225	0.00	30.052 
23:45	79.6	79.6	82.1	68	68.1	0	2	248	0.00	30.053 
23:50	79.6	79.6	82.1	68	68.1	0	3	248	0.00	30.053 
23:55	79.6	79.6	82.1	68	68.1	0	3	248	0.00	30.053 

CoCoRaHS
IN-AL-39
A2 Web Hosting
Creative Commons License
GoDaddy
search engine by freefind advanced

loaded 2018-11-21 01:49:23 • last modified 2010-11-18 10:43:29
Privacy PolicyDisclaimer
• wx.awcolley.com is powered by PmWiki v.2002016 •
• all content (unless otherwise noted) © 2018 A W Colley